Time;durP1;ratioP1;P1;durP2;ratioP2;P2;SDS_P1;SDS_P2;PMS_P1;PMS_P2;Temp;Humidity;BMP_temperature;BMP_pressure;BME280_temperature;BME280_humidity;BME280_pressure;Samples;Min_cycle;Max_cycle;Signal;HPM_P1;HPM_P2
2022/11/19 00:02:16;;;;;;;4.63;1.42;;;;;;;9.71;27.28;102086.31;4952492;28;20058;-76
2022/11/19 00:04:48;;;;;;;2.75;1.60;;;;;;;9.65;26.99;102082.59;4947825;28;20071;-79
2022/11/19 00:07:16;;;;;;;;;;;;;;;9.57;27.15;102085.56;4960888;28;20039;-77
2022/11/19 00:09:45;;;;;;;7.72;1.80;;;;;;;9.41;26.82;102068.31;4950706;28;19946;-76
2022/11/19 00:15:05;;;;;;;3.35;1.23;;;;;;;9.33;26.80;102075.66;4934330;28;20055;-76
2022/11/19 00:17:34;;;;;;;2.92;1.52;;;;;;;9.24;28.15;102072.56;4949259;28;20048;-79
2022/11/19 00:20:05;;;;;;;4.88;1.55;;;;;;;9.12;27.84;102074.47;4954724;28;20093;-78
2022/11/19 00:22:33;;;;;;;2.97;1.73;;;;;;;8.99;27.96;102071.16;4941572;28;20050;-74
2022/11/19 00:25:02;;;;;;;3.53;1.20;;;;;;;8.88;28.38;102061.94;4953162;28;20051;-74
2022/11/19 00:27:32;;;;;;;2.90;1.40;;;;;;;8.81;28.65;102067.53;4954089;28;20054;-75
2022/11/19 00:30:01;;;;;;;2.25;1.30;;;;;;;8.74;29.20;102075.72;4955049;28;20051;-76
2022/11/19 00:32:30;;;;;;;3.53;1.50;;;;;;;8.63;28.98;102076.78;4953455;28;20047;-75
2022/11/19 00:34:59;;;;;;;2.75;1.60;;;;;;;8.54;28.87;102075.47;4949789;28;20111;-75
2022/11/19 00:37:29;;;;;;;2.75;1.85;;;;;;;8.37;29.73;102056.38;4954503;28;20069;-75
2022/11/19 00:39:58;;;;;;;3.78;1.95;;;;;;;8.36;29.51;102064.00;4945422;28;20051;-75
2022/11/19 00:42:27;;;;;;;3.17;1.20;;;;;;;8.27;29.67;102073.78;4948594;28;20052;-77
2022/11/19 00:44:56;;;;;;;3.47;1.63;;;;;;;8.19;30.61;102076.78;4940540;28;20518;-77
2022/11/19 00:47:24;;;;;;;2.38;1.60;;;;;;;8.12;30.61;102071.19;4953177;28;20047;-75
2022/11/19 00:49:53;;;;;;;2.40;1.40;;;;;;;8.04;30.22;102069.81;4945355;28;20047;-74
2022/11/19 00:52:22;;;;;;;3.47;1.83;;;;;;;8.00;29.66;102060.13;4952699;28;20047;-79
2022/11/19 00:54:55;;;;;;;2.88;1.40;;;;;;;7.95;30.48;102065.00;4957396;28;20047;-76
2022/11/19 00:57:24;;;;;;;2.00;1.35;;;;;;;7.88;30.87;102061.16;4951941;28;20077;-78
2022/11/19 00:59:52;;;;;;;5.05;1.63;;;;;;;7.85;30.90;102065.22;4949721;28;20511;-77
2022/11/19 01:02:21;;;;;;;4.72;2.08;;;;;;;7.81;30.29;102058.09;4947825;28;20051;-77
2022/11/19 01:04:50;;;;;;;3.70;1.83;;;;;;;7.76;30.12;102062.97;4957170;28;20111;-77
2022/11/19 01:07:21;;;;;;;2.33;1.48;;;;;;;7.71;30.61;102057.53;4954302;28;20055;-77
2022/11/19 01:09:51;;;;;;;5.45;1.77;;;;;;;7.70;30.81;102060.03;4948328;28;20051;-76
2022/11/19 01:12:26;;;;;;;9.32;1.73;;;;;;;7.65;31.33;102056.25;4950658;28;20131;-78
2022/11/19 01:14:54;;;;;;;4.60;1.85;;;;;;;7.61;30.67;102054.31;4952933;28;20057;-79
2022/11/19 01:17:30;;;;;;;2.70;1.58;;;;;;;7.53;31.68;102056.38;4951871;28;20043;-79
2022/11/19 01:20:05;;;;;;;5.15;1.60;;;;;;;7.48;30.81;102050.06;4945127;28;20066;-79
2022/11/19 01:22:34;;;;;;;3.47;1.75;;;;;;;7.40;31.33;102044.44;4952602;28;20129;-77
2022/11/19 01:25:07;;;;;;;3.22;1.58;;;;;;;7.37;31.98;102048.50;4952688;28;20074;-81
2022/11/19 01:27:35;;;;;;;3.85;1.83;;;;;;;7.33;31.85;102062.88;4951709;28;20047;-80
2022/11/19 01:30:05;;;;;;;4.30;1.40;;;;;;;7.27;32.52;102053.06;4953552;28;20067;-79
2022/11/19 01:32:33;;;;;;;5.68;2.13;;;;;;;7.24;31.61;102040.00;4949225;28;20055;-78
2022/11/19 01:35:02;;;;;;;3.15;1.58;;;;;;;7.20;32.24;102043.19;4953231;28;20047;-77
2022/11/19 01:37:31;;;;;;;5.05;1.45;;;;;;;7.19;32.53;102050.78;4947004;28;20070;-79
2022/11/19 01:40:00;;;;;;;2.20;1.30;;;;;;;7.10;32.34;102033.97;4953640;28;20075;-79
2022/11/19 01:45:27;;;;;;;2.70;1.30;;;;;;;7.04;32.35;102036.16;4946485;28;20177;-80
2022/11/19 01:48:00;;;;;;;1.98;1.42;;;;;;;7.01;32.58;102042.78;4946068;28;20051;-78
2022/11/19 01:50:33;;;;;;;1.75;0.90;;;;;;;6.98;32.24;102033.19;4945894;28;20047;-83
2022/11/19 02:32:27;;;;;;;2.45;1.30;;;;;;;6.58;33.76;102019.44;5203653;23;20040;-72
2022/11/19 02:34:59;;;;;;;2.60;1.35;;;;;;;6.54;33.45;102020.00;4949868;28;20055;-74
2022/11/19 02:37:35;;;;;;;2.95;1.33;;;;;;;6.50;33.49;102012.09;4943554;28;20066;-74
2022/11/19 02:40:08;;;;;;;6.18;1.63;;;;;;;6.49;33.31;102017.13;4952364;28;20134;-78
2022/11/19 02:42:42;;;;;;;3.60;1.75;;;;;;;6.39;34.47;102010.50;4943278;28;20151;-73
2022/11/19 02:45:16;;;;;;;2.67;1.13;;;;;;;6.46;35.28;102012.69;4943081;28;20058;-74
2022/11/19 02:47:51;;;;;;;2.50;1.52;;;;;;;6.47;37.64;102022.16;4951796;28;20577;-74
2022/11/19 02:50:22;;;;;;;4.90;2.08;;;;;;;6.52;36.22;102016.44;4948918;28;20047;-73
2022/11/19 02:52:53;;;;;;;3.40;1.83;;;;;;;6.41;36.07;102001.19;4949689;28;20050;-74
2022/11/19 02:55:23;;;;;;;4.05;1.52;;;;;;;6.55;34.07;102014.06;4940240;28;20087;-74
2022/11/19 02:57:58;;;;;;;2.67;1.35;;;;;;;6.50;34.05;102012.09;4948522;28;20055;-78
2022/11/19 03:06:06;;;;;;;2.85;1.40;;;;;;;6.44;34.44;102021.09;4944342;28;20108;-74
2022/11/19 03:08:35;;;;;;;3.67;1.25;;;;;;;6.42;34.10;102022.66;4952450;28;20055;-73
2022/11/19 03:11:14;;;;;;;2.53;1.33;;;;;;;6.39;33.18;102012.16;4945831;28;20051;-78
2022/11/19 03:16:42;;;;;;;3.35;1.42;;;;;;;6.34;34.12;102016.97;4950756;28;20062;-76
2022/11/19 03:19:30;;;;;;;;;;;;;;;6.34;34.56;102019.56;4947136;28;20047;-76
2022/11/19 03:22:04;;;;;;;4.00;1.60;;;;;;;6.33;34.38;102022.94;4930475;28;20258;-77
2022/11/19 03:24:37;;;;;;;2.30;1.10;;;;;;;6.31;34.62;102024.50;4946299;28;20067;-77
2022/11/19 03:27:13;;;;;;;4.22;1.35;;;;;;;6.31;34.35;102021.94;4937239;28;20075;-77
2022/11/19 03:29:46;;;;;;;4.95;1.90;;;;;;;6.32;33.93;102030.53;4943695;28;20043;-78
2022/11/19 03:32:20;;;;;;;5.10;1.65;;;;;;;6.31;34.17;102024.50;4940172;28;22637;-78
2022/11/19 03:34:56;;;;;;;2.22;1.35;;;;;;;6.31;34.15;102023.63;4941603;28;20109;-77
2022/11/19 03:37:29;;;;;;;4.05;1.77;;;;;;;6.32;33.94;102028.84;4942656;28;20053;-77
2022/11/19 03:40:00;;;;;;;2.05;1.00;;;;;;;6.33;34.57;102038.34;4943099;28;20051;-78
2022/11/19 03:42:35;;;;;;;4.80;1.40;;;;;;;6.32;34.29;102044.25;4952035;28;20059;-76
2022/11/19 03:45:09;;;;;;;2.55;1.30;;;;;;;6.29;34.81;102041.50;4962450;28;20716;-78
2022/11/19 03:47:58;;;;;;;2.22;1.58;;;;;;;6.29;34.68;102052.66;4952315;28;20051;-79
2022/11/19 03:50:33;;;;;;;2.45;1.40;;;;;;;6.29;34.38;102047.53;4949812;28;20086;-78
2022/11/19 03:53:10;;;;;;;2.13;1.50;;;;;;;6.31;35.50;102069.88;4950480;28;20674;-77
2022/11/19 03:55:46;;;;;;;2.05;1.20;;;;;;;6.27;34.45;102055.94;4944485;28;20065;-77
2022/11/19 03:58:15;;;;;;;3.13;1.35;;;;;;;6.28;35.03;102068.00;4950125;28;20080;-78
2022/11/19 04:00:52;;;;;;;3.58;1.35;;;;;;;6.26;35.07;102060.19;4952365;28;20055;-78
2022/11/19 04:03:21;;;;;;;3.67;1.45;;;;;;;6.27;34.72;102066.22;4948097;28;20047;-80
2022/11/19 04:05:50;;;;;;;3.78;1.48;;;;;;;6.25;34.60;102076.41;4947229;28;20059;-79
2022/11/19 04:08:22;;;;;;;3.20;1.50;;;;;;;6.19;35.28;102069.97;4953368;28;20043;-80
2022/11/19 04:10:53;;;;;;;8.07;1.77;;;;;;;6.19;35.62;102085.38;4954507;28;20686;-77
2022/11/19 04:13:21;;;;;;;3.50;1.30;;;;;;;6.15;36.08;102075.66;4949290;28;20289;-76
2022/11/19 04:15:50;;;;;;;2.20;1.27;;;;;;;6.13;34.94;102074.66;4950825;28;20508;-77
2022/11/19 04:18:19;;;;;;;2.15;1.20;;;;;;;6.14;36.32;102081.56;4954299;28;20053;-77
2022/11/19 04:20:52;;;;;;;1.83;1.25;;;;;;;6.13;35.37;102084.94;4950998;28;20130;-78
2022/11/19 04:23:22;;;;;;;2.25;1.40;;;;;;;6.14;35.89;102079.00;4951596;28;20074;-77
2022/11/19 04:25:51;;;;;;;4.72;1.55;;;;;;;6.10;35.38;102074.47;4949073;28;20055;-77
2022/11/19 04:28:20;;;;;;;2.45;1.45;;;;;;;6.08;35.05;102080.38;4951270;28;20058;-77
2022/11/19 04:30:57;;;;;;;2.72;1.73;;;;;;;6.06;36.05;102074.22;4952516;28;20047;-77
2022/11/19 04:33:26;;;;;;;1.88;1.38;;;;;;;6.05;35.52;102072.47;4910119;29;20127;-78
2022/11/19 04:35:55;;;;;;;3.85;1.20;;;;;;;6.03;35.99;102074.03;4905845;29;20053;-79
2022/11/19 04:38:25;;;;;;;9.35;2.10;;;;;;;6.02;35.57;102067.09;4908782;29;20052;-78
2022/11/19 04:40:58;;;;;;;4.15;2.13;;;;;;;6.00;36.09;102073.84;4920163;29;20040;-78
2022/11/19 04:43:27;;;;;;;3.92;1.95;;;;;;;5.99;35.66;102074.59;4906363;29;20057;-78
2022/11/19 04:45:56;;;;;;;3.70;1.67;;;;;;;5.99;36.68;102076.28;4910137;29;20082;-78
2022/11/19 04:48:24;;;;;;;2.33;1.23;;;;;;;5.94;36.27;102078.53;4933212;29;20069;-76
2022/11/19 04:51:00;;;;;;;2.78;1.58;;;;;;;5.96;35.87;102091.50;4923122;29;20052;-74
2022/11/19 04:53:30;;;;;;;3.20;1.40;;;;;;;5.95;36.27;102089.69;4913609;29;20052;-74
2022/11/19 04:55:59;;;;;;;3.83;1.63;;;;;;;5.93;36.00;102092.13;4914219;29;20055;-75
2022/11/19 04:58:28;;;;;;;3.40;1.65;;;;;;;5.89;35.98;102090.16;4914197;29;20417;-76
2022/11/19 05:00:56;;;;;;;3.88;1.60;;;;;;;5.92;36.36;102087.78;4910695;29;20084;-78
2022/11/19 05:03:27;;;;;;;3.92;2.00;;;;;;;5.93;35.91;102076.69;4914022;29;20056;-79
2022/11/19 05:05:56;;;;;;;3.22;1.63;;;;;;;5.93;35.83;102076.69;4905733;29;20071;-78
2022/11/19 05:08:25;;;;;;;1.73;1.02;;;;;;;5.93;35.82;102075.81;4918223;29;20056;-75
2022/11/19 05:10:59;;;;;;;2.70;1.40;;;;;;;5.94;35.50;102078.53;4909302;29;20044;-78
2022/11/19 05:13:30;;;;;;;3.03;1.88;;;;;;;5.91;36.11;102082.53;4905668;29;20057;-80
2022/11/19 05:15:59;;;;;;;3.60;1.70;;;;;;;5.90;35.92;102091.03;4903465;29;20135;-80
2022/11/19 05:18:27;;;;;;;6.10;1.83;;;;;;;5.90;36.40;102091.03;4911178;29;20045;-77
2022/11/19 05:21:08;;;;;;;;;;;;;;;;;;;;;
2022/11/19 05:23:37;;;;;;;3.70;1.92;;;;;;;5.86;36.22;102095.97;4903680;29;20060;-77
2022/11/19 05:26:07;;;;;;;2.22;1.33;;;;;;;5.87;36.59;102099.41;4911276;29;20049;-78
2022/11/19 05:28:36;;;;;;;4.97;2.00;;;;;;;5.86;35.53;102101.09;4913185;29;20075;-76
2022/11/19 05:31:07;;;;;;;4.47;1.33;;;;;;;5.84;36.95;102096.63;4914455;28;20080;-77
2022/11/19 05:33:35;;;;;;;4.13;1.70;;;;;;;5.81;36.46;102101.53;4946754;28;20221;-76
2022/11/19 05:36:04;;;;;;;3.72;1.50;;;;;;;5.82;36.86;102103.34;4952751;28;20052;-76
2022/11/19 05:38:33;;;;;;;3.03;1.80;;;;;;;5.80;36.47;102104.91;4944475;28;20048;-76
2022/11/19 05:41:03;;;;;;;3.85;2.17;;;;;;;5.79;36.92;102103.09;4938600;28;20798;-77
2022/11/19 05:43:35;;;;;;;3.22;1.60;;;;;;;5.76;36.49;102106.34;4945396;28;20409;-76
2022/11/19 05:46:04;;;;;;;3.90;1.92;;;;;;;5.74;36.39;102105.34;4948300;28;20059;-78
2022/11/19 05:48:32;;;;;;;3.38;1.80;;;;;;;5.73;36.23;102108.72;4934996;28;20058;-76
2022/11/19 05:51:01;;;;;;;4.25;2.05;;;;;;;5.73;36.49;102107.84;4935604;28;20706;-75
2022/11/19 05:53:30;;;;;;;4.05;1.67;;;;;;;5.69;36.41;102111.84;4944530;28;20102;-76
2022/11/19 05:56:01;;;;;;;4.53;1.90;;;;;;;5.71;36.46;102111.97;4946896;28;20055;-74
2022/11/19 05:58:29;;;;;;;3.97;1.88;;;;;;;5.70;35.79;102121.31;4936968;28;20043;-75
2022/11/19 06:01:00;;;;;;;5.32;1.77;;;;;;;5.68;36.47;102110.09;4935521;28;20456;-77
2022/11/19 06:03:32;;;;;;;3.30;1.67;;;;;;;5.69;37.25;102117.00;4937941;28;20051;-75
2022/11/19 06:06:03;;;;;;;3.80;1.90;;;;;;;5.70;36.96;102117.88;4942980;28;20052;-75
2022/11/19 06:08:32;;;;;;;7.43;1.65;;;;;;;5.69;36.12;102116.09;4943018;28;20039;-74
2022/11/19 06:11:03;;;;;;;3.20;1.75;;;;;;;5.65;36.57;102121.00;4952116;28;20394;-75
2022/11/19 06:16:15;;;;;;;4.40;1.75;;;;;;;5.59;37.46;102123.16;4939394;28;20057;-75
2022/11/19 06:18:44;;;;;;;4.45;1.90;;;;;;;5.58;36.49;102134.19;4945991;28;20043;-77
2022/11/19 06:21:14;;;;;;;3.90;2.17;;;;;;;5.57;37.36;102122.16;4947254;28;20053;-74
2022/11/19 06:23:43;;;;;;;7.88;2.03;;;;;;;5.54;36.03;102127.03;4946405;28;20058;-74
2022/11/19 06:26:12;;;;;;;2.30;1.55;;;;;;;5.54;37.02;102127.03;4949627;28;20409;-74
2022/11/19 06:28:41;;;;;;;4.68;2.00;;;;;;;5.52;36.54;102122.56;4951023;28;20057;-74
2022/11/19 06:31:09;;;;;;;3.38;2.05;;;;;;;5.49;37.25;102119.81;4941903;28;20083;-75
2022/11/19 06:33:48;;;;;;;3.65;1.67;;;;;;;5.50;36.89;102134.41;4940094;28;20138;-74
2022/11/19 06:36:17;;;;;;;2.53;1.38;;;;;;;5.47;36.48;102129.94;4941335;28;20047;-74
2022/11/19 06:38:45;;;;;;;3.35;1.33;;;;;;;5.46;37.26;102133.31;4944053;28;20054;-73
2022/11/19 06:41:16;;;;;;;3.80;2.10;;;;;;;5.44;37.08;102140.91;4947403;28;20058;-76
2022/11/19 06:43:45;;;;;;;4.28;2.10;;;;;;;5.42;36.41;102131.31;4944323;28;20047;-75
2022/11/19 06:46:14;;;;;;;3.15;1.52;;;;;;;5.33;36.75;102121.25;4938959;28;20082;-76
2022/11/19 06:48:44;;;;;;;2.72;1.98;;;;;;;5.39;37.04;102131.97;4945775;28;20094;-76
2022/11/19 06:51:13;;;;;;;4.25;1.73;;;;;;;5.38;37.21;102135.34;4947889;28;20047;-75
2022/11/19 06:53:42;;;;;;;5.13;1.67;;;;;;;5.31;38.03;102133.09;4947607;28;20052;-76
2022/11/19 06:56:13;;;;;;;2.63;1.50;;;;;;;5.34;38.07;102152.97;4950911;28;20047;-75
2022/11/19 06:58:42;;;;;;;4.55;1.63;;;;;;;5.31;37.35;102147.59;4947716;28;20043;-77
2022/11/19 07:01:10;;;;;;;5.43;2.20;;;;;;;5.31;37.79;102148.47;4944635;28;20052;-75
2022/11/19 07:03:39;;;;;;;2.47;1.70;;;;;;;5.32;37.16;102151.97;4949848;28;20053;-75
2022/11/19 07:06:11;;;;;;;3.85;2.15;;;;;;;5.29;38.66;102149.16;4954338;28;20509;-76
2022/11/19 07:08:40;;;;;;;2.15;1.20;;;;;;;5.25;37.32;102153.19;4952183;28;20059;-75
2022/11/19 07:14:00;;;;;;;4.57;1.95;;;;;;;5.20;39.41;102159.63;4949621;28;20047;-74
2022/11/19 07:16:30;;;;;;;3.70;1.85;;;;;;;5.19;38.61;102163.00;4955732;28;20065;-75
2022/11/19 07:19:00;;;;;;;2.13;1.30;;;;;;;5.18;37.97;102150.97;4947042;28;20051;-76
2022/11/19 07:21:33;;;;;;;3.05;1.77;;;;;;;5.16;37.90;102155.97;4951118;28;20051;-75
2022/11/19 07:24:03;;;;;;;3.58;2.00;;;;;;;5.13;39.27;102158.31;4948218;28;20521;-77
2022/11/19 07:26:33;;;;;;;7.03;1.98;;;;;;;5.11;36.90;102139.34;4947773;28;20486;-76
2022/11/19 07:29:02;;;;;;;3.28;1.85;;;;;;;5.12;37.52;102150.50;4950542;28;20047;-75
2022/11/19 07:31:32;;;;;;;3.55;1.70;;;;;;;5.11;37.04;102151.25;4949242;28;20057;-74
2022/11/19 07:34:01;;;;;;;4.32;1.95;;;;;;;5.11;37.57;102157.31;4954239;28;20051;-75
2022/11/19 07:36:31;;;;;;;2.90;1.23;;;;;;;5.11;37.44;102157.31;4953818;28;20051;-77
2022/11/19 07:39:00;;;;;;;2.90;1.45;;;;;;;5.07;38.08;102150.16;4948504;28;20053;-75
2022/11/19 07:44:14;;;;;;;3.25;1.35;;;;;;;5.06;37.79;102155.16;4953684;28;20133;-76
2022/11/19 07:46:43;;;;;;;2.97;1.73;;;;;;;5.05;38.08;102149.16;4955454;28;20054;-73
2022/11/19 07:49:18;;;;;;;3.08;1.67;;;;;;;4.94;38.55;102129.50;4946120;28;20570;-76
2022/11/19 07:51:49;;;;;;;2.90;1.60;;;;;;;5.01;38.31;102155.69;4943192;28;20062;-75
2022/11/19 07:54:28;;;;;;;3.35;2.08;;;;;;;4.93;37.81;102133.75;4948520;28;20069;-75
2022/11/19 07:56:59;;;;;;;1.98;1.40;;;;;;;4.97;37.42;102150.22;4952537;28;20051;-76
2022/11/19 07:59:28;;;;;;;6.40;1.95;;;;;;;4.96;38.01;102151.03;4951508;28;20528;-74
2022/11/19 08:01:56;;;;;;;4.90;2.35;;;;;;;4.94;38.81;102144.88;4951169;28;20051;-76
2022/11/19 08:04:27;;;;;;;4.18;1.67;;;;;;;4.95;38.13;102151.81;4944659;28;20047;-75
2022/11/19 08:07:02;;;;;;;6.20;1.95;;;;;;;4.93;38.97;102153.38;4956100;28;20090;-77
2022/11/19 08:09:31;;;;;;;2.88;1.70;;;;;;;4.92;38.30;102147.31;4952826;28;20053;-77
2022/11/19 08:12:00;;;;;;;4.18;1.90;;;;;;;4.90;39.26;102137.75;4956761;28;20058;-75
2022/11/19 08:14:29;;;;;;;6.93;1.90;;;;;;;4.88;37.79;102136.72;4953635;28;20051;-77
2022/11/19 08:19:42;;;;;;;2.70;1.50;;;;;;;4.89;38.07;102141.09;4945994;28;20073;-75
2022/11/19 08:22:19;;;;;;;3.67;1.77;;;;;;;4.88;37.73;102144.41;4947790;28;20047;-77
2022/11/19 08:24:48;;;;;;;4.05;1.88;;;;;;;4.87;39.31;102140.09;4952205;28;20110;-78
2022/11/19 08:27:18;;;;;;;5.47;2.20;;;;;;;4.86;38.49;102146.00;4953008;28;20057;-76
2022/11/19 08:29:47;;;;;;;3.70;1.67;;;;;;;4.83;39.04;102139.88;4944547;28;20051;-75
2022/11/19 08:32:16;;;;;;;3.80;1.70;;;;;;;4.82;38.50;102132.94;4951828;28;20047;-76
2022/11/19 08:34:47;;;;;;;2.22;1.50;;;;;;;4.81;38.78;102133.72;4953554;28;20055;-76
2022/11/19 08:37:19;;;;;;;4.25;2.45;;;;;;;4.82;38.30;102134.63;4951157;28;20489;-75
2022/11/19 08:39:48;;;;;;;4.65;2.00;;;;;;;4.82;38.80;102140.63;4951845;28;20043;-76
2022/11/19 08:45:04;;;;;;;4.13;2.05;;;;;;;4.78;39.43;102125.78;4953354;28;20054;-76
2022/11/19 08:47:32;;;;;;;4.43;2.55;;;;;;;4.76;38.74;102124.78;4959289;28;20062;-75
2022/11/19 08:50:03;;;;;;;4.93;1.98;;;;;;;4.77;38.66;102124.00;4944616;28;20085;-77
2022/11/19 08:52:34;;;;;;;5.90;2.63;;;;;;;4.75;38.79;102122.13;4939851;28;20047;-77
2022/11/19 08:55:02;;;;;;;6.10;2.22;;;;;;;4.77;39.33;102124.00;4945395;28;20131;-75
2022/11/19 08:57:31;;;;;;;5.70;1.98;;;;;;;4.75;39.53;102124.69;4942959;28;20055;-76
2022/11/19 09:00:01;;;;;;;4.80;2.13;;;;;;;4.73;38.61;102128.78;4944148;28;20047;-75
2022/11/19 09:02:57;;;;;;;5.25;1.60;;;;;;;4.74;39.64;102135.69;4942221;28;20060;-76
2022/11/19 09:05:29;;;;;;;3.13;1.98;;;;;;;4.71;39.30;102131.22;4948097;28;20063;-77
2022/11/19 09:07:59;;;;;;;5.05;2.20;;;;;;;4.71;39.05;102128.66;4946640;28;20095;-78
2022/11/19 09:10:28;;;;;;;6.13;2.00;;;;;;;4.69;39.38;102117.41;4952587;28;20051;-76
2022/11/19 09:13:02;;;;;;;3.35;1.90;;;;;;;4.68;39.69;102114.75;4952409;28;20057;-76
2022/11/19 09:15:33;;;;;;;5.90;2.22;;;;;;;4.66;39.05;102119.75;4952060;28;20047;-76
2022/11/19 09:18:02;;;;;;;4.18;1.88;;;;;;;4.65;39.66;102111.94;4955545;28;20051;-76
2022/11/19 09:20:31;;;;;;;4.95;2.15;;;;;;;4.66;38.90;102100.91;4962136;28;20050;-77
2022/11/19 09:23:01;;;;;;;4.32;1.70;;;;;;;4.65;38.82;102111.94;4947945;28;20047;-76
2022/11/19 09:25:31;;;;;;;3.75;2.00;;;;;;;4.63;39.61;102111.84;4959888;28;20497;-75
2022/11/19 09:28:00;;;;;;;2.40;1.48;;;;;;;4.61;39.76;102108.25;4942371;28;20074;-77
2022/11/19 09:30:29;;;;;;;3.53;1.90;;;;;;;4.62;40.67;102112.59;4946397;28;20485;-75
2022/11/19 09:33:00;;;;;;;4.22;2.00;;;;;;;4.60;40.09;102101.34;4950933;28;20047;-75
2022/11/19 09:35:29;;;;;;;6.07;2.25;;;;;;;4.60;39.48;102109.03;4941013;28;20051;-78
2022/11/19 09:37:59;;;;;;;4.55;1.98;;;;;;;4.57;39.74;102098.53;4951769;28;20079;-78
2022/11/19 09:40:30;;;;;;;3.10;1.80;;;;;;;4.57;40.59;102106.25;4949030;28;20043;-78
2022/11/19 09:43:07;;;;;;;6.10;2.30;;;;;;;4.56;40.59;102099.34;4950728;28;20051;-77
2022/11/19 09:45:49;;;;;;;5.18;2.40;;;;;;;4.43;41.27;102082.13;4941800;28;20051;-77
2022/11/19 09:48:28;;;;;;;6.07;2.33;;;;;;;4.51;40.72;102090.38;4943648;28;20446;-78
2022/11/19 09:51:00;;;;;;;4.75;2.20;;;;;;;4.48;39.79;102090.16;4945376;28;20533;-76
2022/11/19 09:53:35;;;;;;;5.50;2.13;;;;;;;4.47;41.44;102088.41;4945297;28;20079;-78
2022/11/19 09:56:06;;;;;;;2.78;2.00;;;;;;;4.46;41.07;102086.59;4942158;28;20051;-76
2022/11/19 09:58:42;;;;;;;4.70;2.38;;;;;;;4.45;41.15;102077.13;4945445;28;20051;-76
2022/11/19 10:01:15;;;;;;;3.47;1.58;;;;;;;4.43;40.91;102081.25;4944072;28;20096;-77
2022/11/19 10:03:48;;;;;;;5.22;2.47;;;;;;;4.40;41.38;102076.78;4939854;28;20051;-76
2022/11/19 10:06:41;;;;;;;6.85;2.05;;;;;;;4.36;41.84;102079.88;4946122;28;20550;-76
2022/11/19 10:09:36;;;;;;;4.15;2.00;;;;;;;4.32;42.03;102089.00;4952296;28;20051;-77
2022/11/19 10:12:26;;;;;;;4.90;2.10;;;;;;;4.27;42.17;102069.81;4950044;28;20042;-77
2022/11/19 10:15:13;;;;;;;5.80;2.50;;;;;;;4.25;40.78;102076.50;4954699;28;20051;-76
2022/11/19 10:17:51;;;;;;;5.20;1.58;;;;;;;4.27;40.43;102074.06;4955779;28;20053;-76
2022/11/19 10:20:33;;;;;;;5.13;2.60;;;;;;;4.26;42.32;102074.81;4946316;28;20044;-76
2022/11/19 10:23:12;;;;;;;3.70;1.57;;;;;;;4.22;41.86;102068.59;4949284;28;20047;-76
2022/11/19 10:25:48;;;;;;;2.38;1.33;;;;;;;4.18;42.56;102076.81;4948886;28;20315;-76
2022/11/19 10:28:23;;;;;;;2.88;1.83;;;;;;;4.14;43.19;102067.09;4946823;28;20051;-75
2022/11/19 10:30:54;;;;;;;2.10;1.63;;;;;;;4.11;42.53;102075.44;4948606;28;20540;-76
2022/11/19 10:33:32;;;;;;;4.32;2.05;;;;;;;4.09;42.03;102073.56;4953093;28;20047;-77
2022/11/19 10:36:05;;;;;;;3.60;1.77;;;;;;;4.04;42.38;102067.19;4949678;28;20047;-77
2022/11/19 10:38:39;;;;;;;8.20;2.63;;;;;;;4.05;41.75;102062.16;4950295;28;20051;-76
2022/11/19 10:41:15;;;;;;;5.53;2.17;;;;;;;4.06;42.75;102065.63;4948863;28;20054;-77
2022/11/19 10:43:49;;;;;;;4.50;2.03;;;;;;;4.07;41.80;102065.75;4940652;28;20533;-76
2022/11/19 10:46:21;;;;;;;6.03;2.50;;;;;;;4.06;41.10;102060.53;4949439;28;20051;-76
2022/11/19 10:48:52;;;;;;;7.68;2.60;;;;;;;4.08;41.66;102052.19;4954036;28;20040;-74
2022/11/19 10:51:24;;;;;;;5.13;2.13;;;;;;;4.09;41.03;102051.38;4947202;28;20489;-75
2022/11/19 10:53:55;;;;;;;6.78;2.17;;;;;;;4.10;41.75;102049.72;4946108;28;20044;-75
2022/11/19 10:56:25;;;;;;;6.75;2.22;;;;;;;4.10;40.71;102057.38;4947972;28;20058;-74
2022/11/19 10:58:59;;;;;;;3.85;1.92;;;;;;;4.10;41.56;102049.72;4942565;28;20047;-77
2022/11/19 11:01:32;;;;;;;3.72;1.63;;;;;;;4.09;40.81;102046.25;4944466;28;20071;-76
2022/11/19 11:04:05;;;;;;;;;;;;;;;4.10;40.50;102052.28;4950631;28;20047;-77
2022/11/19 11:06:51;;;;;;;7.05;2.78;;;;;;;4.11;40.86;102047.28;4952153;28;19988;-76
2022/11/19 11:09:35;;;;;;;10.38;2.30;;;;;;;4.11;41.72;102042.16;4954852;28;20078;-78
2022/11/19 11:15:08;;;;;;;5.70;2.38;;;;;;;4.09;41.49;102032.56;4953000;28;20563;-76
2022/11/19 11:17:44;;;;;;;4.25;2.40;;;;;;;4.07;40.48;102026.44;4940119;28;20078;-76
2022/11/19 11:20:25;;;;;;;4.88;2.15;;;;;;;4.07;40.75;102029.00;4950788;28;20710;-78
2022/11/19 11:23:09;;;;;;;6.97;2.67;;;;;;;4.07;40.43;102021.31;4954308;28;20066;-76
2022/11/19 11:25:40;;;;;;;5.22;2.72;;;;;;;4.06;40.31;102023.00;4952763;28;20059;-77
2022/11/19 11:28:16;;;;;;;6.07;2.30;;;;;;;4.05;41.46;102015.19;4951756;28;20051;-77
2022/11/19 11:30:54;;;;;;;3.88;2.00;;;;;;;4.03;41.20;102017.59;4954125;28;20043;-77
2022/11/19 11:33:38;;;;;;;6.93;2.22;;;;;;;3.99;42.09;102016.50;4952527;28;20055;-76
2022/11/19 11:36:10;;;;;;;3.42;1.98;;;;;;;3.98;41.41;102014.69;4950458;28;21168;-76
2022/11/19 11:39:06;;;;;;;5.47;2.13;;;;;;;3.97;41.23;102023.16;4954948;28;20504;-74
2022/11/19 11:41:39;;;;;;;5.50;2.67;;;;;;;3.95;41.25;102019.59;4901939;29;20148;-75
2022/11/19 11:44:18;;;;;;;5.65;2.45;;;;;;;3.93;41.33;102018.59;4914224;29;20052;-77
2022/11/19 11:46:49;;;;;;;8.77;3.30;;;;;;;3.92;41.99;102010.81;4914722;29;20044;-76
2022/11/19 11:49:31;;;;;;;5.43;2.47;;;;;;;3.91;40.40;102012.44;4909732;29;20487;-76
2022/11/19 11:52:16;;;;;;;5.43;2.40;;;;;;;3.92;41.39;102013.38;4907168;29;20056;-77
2022/11/19 11:55:00;;;;;;;3.30;2.08;;;;;;;3.89;40.89;101998.63;4905194;29;20056;-76
2022/11/19 11:57:31;;;;;;;8.52;2.78;;;;;;;3.90;40.64;102002.13;4906918;29;20051;-77
2022/11/19 12:00:01;;;;;;;6.00;2.55;;;;;;;3.90;40.59;102003.00;4913366;29;20051;-74
2022/11/19 12:02:35;;;;;;;6.25;3.00;;;;;;;3.89;40.68;102003.75;4911906;29;20443;-75
2022/11/19 12:05:05;;;;;;;6.78;2.58;;;;;;;3.87;41.13;101995.09;4915502;29;20055;-75
2022/11/19 12:08:05;;;;;;;8.55;2.67;;;;;;;3.85;41.14;102001.75;4951974;28;20548;-77
2022/11/19 12:10:46;;;;;;;6.63;2.60;;;;;;;3.85;40.89;102001.75;4937411;28;20074;-75
2022/11/19 12:13:48;;;;;;;6.03;2.63;;;;;;;3.85;40.53;102003.41;4946512;28;20047;-76
2022/11/19 12:16:36;;;;;;;4.90;2.38;;;;;;;3.85;40.27;102000.84;4948989;28;20054;-77
2022/11/19 12:19:22;;;;;;;5.35;2.35;;;;;;;3.85;40.51;102001.75;4949601;28;20047;-75
2022/11/19 12:21:58;;;;;;;6.32;2.63;;;;;;;3.85;40.16;101995.72;4951954;28;20051;-76
2022/11/19 12:24:54;;;;;;;5.95;1.77;;;;;;;3.84;40.88;102007.63;4953440;28;20046;-76
2022/11/19 12:27:36;;;;;;;5.20;2.30;;;;;;;3.81;39.85;101989.50;4950680;28;20047;-75
2022/11/19 12:30:09;;;;;;;7.35;3.13;;;;;;;3.86;40.35;101998.41;4945475;28;20051;-77
2022/11/19 12:32:49;;;;;;;;;;;;;;;3.86;41.17;102003.53;4947160;28;20533;-78
2022/11/19 12:35:35;;;;;;;7.15;3.22;;;;;;;3.86;40.83;101992.41;4953568;28;20009;-78
2022/11/19 12:38:23;;;;;;;6.63;3.20;;;;;;;3.85;40.38;101990.59;4938896;28;20078;-77
2022/11/19 12:41:05;;;;;;;6.45;2.50;;;;;;;3.84;41.22;101989.72;4953238;28;20069;-76
2022/11/19 12:43:54;;;;;;;6.55;2.35;;;;;;;3.82;40.26;101990.38;4954301;28;20532;-77
2022/11/19 12:46:36;;;;;;;3.00;1.60;;;;;;;3.80;41.18;101992.81;4952060;28;20059;-77
2022/11/19 12:49:21;;;;;;;5.78;2.53;;;;;;;3.80;40.75;101995.38;4953995;28;20052;-76
2022/11/19 12:52:04;;;;;;;4.63;2.25;;;;;;;3.80;40.52;101986.81;4948710;28;20043;-78
2022/11/19 12:54:48;;;;;;;8.20;2.05;;;;;;;3.79;41.37;101996.16;4949264;28;20045;-74
2022/11/19 12:57:38;;;;;;;4.68;2.38;;;;;;;3.76;40.74;101996.81;4945631;28;20074;-76
2022/11/19 13:00:13;;;;;;;4.10;2.38;;;;;;;3.75;41.85;101987.34;4951050;28;20047;-77
2022/11/19 13:02:51;;;;;;;5.38;2.70;;;;;;;3.73;41.75;101990.56;4953151;28;20043;-76
2022/11/19 13:05:23;;;;;;;4.13;2.30;;;;;;;3.71;41.19;101980.22;4945919;28;20077;-77
2022/11/19 13:07:58;;;;;;;5.38;2.90;;;;;;;3.73;40.88;101985.44;4947586;28;20428;-76
2022/11/19 13:10:33;;;;;;;8.23;3.47;;;;;;;3.73;40.72;101985.44;4953579;28;20051;-77
2022/11/19 13:13:22;;;;;;;2.33;1.80;;;;;;;3.74;40.72;101989.81;4942186;28;20521;-77
2022/11/19 13:15:58;;;;;;;3.88;1.98;;;;;;;3.74;41.50;101987.25;4943440;28;20508;-77